Gwangju Airport
RKJJ : rendu visible

Aérodrome :











RETROUVEZ-NOUS SUR...

 
LOGIN :

S'inscrire | Disclaimer

   EN    FR    IT 

 









Légende :    VFR   VFR Marginal   IFR   IFR Intensif   IFR Très Intensif
Visi : 
Plafond : 
>= 8 km
>= 3000ft
5 à 8 km
1000 à 3000 ft
1500m à 5 km
500 à 1000 ft
800 à 1500m
200 à 500 ft
< 800m
< 200 ft
Symboles :   Orages  Brouillard  Fortes neiges  Fortes précipitations  Vent > 20 kt






- Altitude de l'aérodrome : 39 ft
- Code IATA : KWJ


RKJJ - Gwangju

DERNIER METAR :
  • 272100Z 03003KT CAVOK 03/02 Q1016 RMK CIG080 SLP167 8/020 9/070 WR24

METARs EXPIRÉS :
  • 272000Z 02003KT CAVOK 04/03 Q1016 RMK CIG070 SLP167 8/020 9/070 WR24
  • 271900Z 34003KT 9999 SCT040 BKN070 04/03 Q1016 RMK CIG070 SLP167 8/520 9/340 WR24

TAF TAF RKJJ
Valide du 27 à 18h jusqu'au 29 à 00h UTC


271700Z 2718/2824 36006KT 9999 SCT040 BKN070 TN03/2721Z TX10/2806Z
BECMG 2801/2802 03006KT BKN030



MET'MAP, la Météo Aéronautique d'un coup d'oeil ! - Copyright ORBIFLY Décembre 2007 - Disclaimer

ORBIFLY MET'MAP TEAM :

Programmation & Développement : Alexandra Zaïnal
Sur une idée originale de : Baudouin d'Aumeries
Assistance à la programmation : Marc-Olivier Méhu
Soutien technique & logistique : Manuel Goepfert

Contact : metmap@orbifly.com




SOURCES & CREDITS :

   NOAA       Earth
Advisory